< < Back
Terminal Aerodrome Forecast


Current Version              Previous Versions:   1  2  3  4  5  6  7  8  9  

Terminal Aerodrome Forecast

556
FTUS42 KGSP 272336
TAFAND
TAF
KAND 272336Z 2800/2824 19003KT P6SM SCT250
     FM280900 00000KT 5SM BR BKN170
     FM281200 00000KT 6SM BR BKN120
     FM281500 15005KT P6SM BKN029
     FM281700 18006KT P6SM BKN040 PROB30 2818/2823 4SM TSRA
      BKN030CB=

Latest METAR

897
SAUS70 KWBC 280200 RRB
MTRAND
METAR KAND 280156Z AUTO 00000KT 10SM CLR 21/19 A3021 RMK AO2 SLP220
T02110189


USA.gov is the U.S. government's official web portal to all federal, state and local government web resources and services.